createdAt,value
2018-06-29T00:02:18.918Z,91.30
2018-06-29T00:04:51.372Z,91.40
2018-06-29T00:07:25.411Z,91.50
2018-06-29T00:09:57.918Z,91.40
2018-06-29T00:12:30.431Z,91.80
2018-06-29T00:15:03.045Z,91.50
2018-06-29T00:17:35.501Z,91.60
2018-06-29T00:20:07.942Z,91.70
2018-06-29T00:22:40.371Z,91.70
2018-06-29T00:25:13.097Z,91.70
2018-06-29T00:27:45.510Z,91.80
2018-06-29T00:30:18.074Z,92.00
2018-06-29T00:32:50.577Z,92.20
2018-06-29T00:35:24.610Z,91.90
2018-06-29T00:37:56.992Z,91.90
2018-06-29T00:40:29.601Z,91.90
2018-06-29T00:43:02.031Z,92.20
2018-06-29T00:45:34.804Z,91.90
2018-06-29T00:48:07.229Z,91.90
2018-06-29T00:50:39.687Z,91.80
2018-06-29T00:53:12.461Z,91.70
2018-06-29T00:55:44.902Z,91.70
2018-06-29T00:58:17.347Z,91.70
2018-06-29T01:00:49.747Z,91.70
2018-06-29T01:03:22.183Z,91.60
2018-06-29T01:05:54.601Z,91.60
2018-06-29T01:08:27.101Z,91.60
2018-06-29T01:11:00.731Z,91.50
2018-06-29T01:13:33.200Z,91.60
2018-06-29T01:16:05.694Z,91.50
2018-06-29T01:18:38.145Z,91.60
2018-06-29T01:23:43.010Z,91.70
2018-06-29T01:26:15.491Z,91.70
2018-06-29T01:28:47.921Z,91.80
2018-06-29T01:31:20.394Z,91.80
2018-06-29T01:33:52.820Z,91.90
2018-06-29T01:36:25.382Z,91.90
2018-06-29T01:38:57.814Z,91.80
2018-06-29T01:41:30.492Z,91.70
2018-06-29T01:44:02.972Z,91.90
2018-06-29T01:46:35.803Z,92.30
2018-06-29T01:49:10.325Z,99.90
2018-06-29T01:51:43.625Z,96.60
2018-06-29T01:54:16.110Z,91.80
2018-06-29T01:56:50.197Z,91.90
2018-06-29T01:59:22.617Z,91.90
2018-06-29T02:01:55.044Z,92.00
2018-06-29T02:04:27.516Z,93.10
2018-06-29T02:06:59.957Z,93.10
2018-06-29T02:09:32.544Z,92.10
2018-06-29T02:12:05.077Z,92.00
2018-06-29T02:14:37.490Z,92.00
2018-06-29T02:19:42.740Z,91.70
2018-06-29T02:22:15.179Z,92.00
2018-06-29T02:24:47.578Z,92.10
2018-06-29T02:27:20.177Z,92.00
2018-06-29T02:29:52.601Z,92.10
2018-06-29T02:32:25.247Z,92.10
2018-06-29T02:34:57.685Z,92.00
2018-06-29T02:37:30.458Z,92.10
2018-06-29T02:40:02.998Z,92.10
2018-06-29T02:42:35.441Z,92.00
2018-06-29T02:45:07.882Z,92.00
2018-06-29T02:47:40.382Z,92.00
2018-06-29T02:50:12.793Z,92.00
2018-06-29T02:52:45.327Z,91.90
2018-06-29T02:55:17.747Z,91.70
2018-06-29T03:00:24.189Z,92.00
2018-06-29T03:08:01.791Z,99.90
2018-06-29T03:10:34.224Z,99.60
2018-06-29T03:13:06.680Z,99.90
2018-06-29T03:20:44.226Z,91.00
2018-06-29T03:23:16.673Z,91.30
2018-06-29T03:25:49.155Z,91.80
2018-06-29T03:28:21.573Z,91.40
2018-06-29T03:30:54.003Z,91.40
2018-06-29T03:33:26.485Z,91.50
2018-06-29T03:35:59.003Z,91.50
2018-06-29T03:38:31.490Z,91.60
2018-06-29T03:41:04.372Z,91.40
2018-06-29T03:43:36.920Z,91.40
2018-06-29T03:46:09.416Z,91.40
2018-06-29T03:48:41.975Z,91.50
2018-06-29T03:51:14.420Z,91.30
2018-06-29T03:53:46.926Z,91.20
2018-06-29T03:56:19.372Z,91.30
2018-06-29T03:58:51.927Z,91.20
2018-06-29T04:01:24.327Z,91.30
2018-06-29T04:03:56.781Z,91.30
2018-06-29T04:06:29.238Z,91.20
2018-06-29T04:09:01.765Z,91.20
2018-06-29T04:11:34.177Z,91.30
2018-06-29T04:14:06.780Z,90.90
2018-06-29T04:16:39.245Z,90.70
2018-06-29T04:19:11.695Z,91.70
2018-06-29T04:21:44.109Z,95.20
2018-06-29T04:24:16.690Z,90.10
2018-06-29T04:26:49.153Z,90.00
2018-06-29T04:29:21.609Z,89.10
2018-06-29T04:31:54.035Z,88.60
2018-06-29T04:34:26.504Z,89.30
2018-06-29T04:36:59.226Z,89.60
2018-06-29T04:39:31.993Z,89.60
2018-06-29T04:42:04.832Z,89.70
2018-06-29T04:44:37.454Z,90.00
2018-06-29T04:47:09.929Z,90.10
2018-06-29T04:49:42.377Z,90.00
2018-06-29T04:52:14.779Z,90.10
2018-06-29T04:54:47.250Z,90.30
2018-06-29T04:57:19.675Z,90.50
2018-06-29T04:59:52.165Z,90.50
2018-06-29T05:02:24.636Z,90.40
2018-06-29T05:04:57.227Z,90.50
2018-06-29T05:07:29.955Z,90.40
2018-06-29T05:10:02.434Z,90.40
2018-06-29T05:12:35.018Z,90.60
2018-06-29T05:15:07.744Z,90.60
2018-06-29T05:17:40.316Z,90.70
2018-06-29T05:20:12.977Z,90.80
2018-06-29T05:22:45.497Z,90.80
2018-06-29T05:27:50.575Z,90.50
2018-06-29T05:30:23.032Z,90.80
2018-06-29T05:32:55.497Z,90.70
2018-06-29T05:35:28.021Z,90.60
2018-06-29T05:38:00.518Z,90.70
2018-06-29T05:40:33.167Z,90.80
2018-06-29T05:43:05.849Z,90.50
2018-06-29T05:45:38.401Z,90.50
2018-06-29T05:48:10.940Z,90.30
2018-06-29T05:50:43.498Z,90.30
2018-06-29T05:53:15.924Z,90.10
2018-06-29T05:58:20.879Z,90.00
2018-06-29T06:00:53.623Z,90.30
2018-06-29T06:03:26.151Z,89.20
2018-06-29T06:05:58.619Z,88.10
2018-06-29T06:08:31.173Z,88.90
2018-06-29T06:11:03.882Z,88.70
2018-06-29T06:13:36.358Z,88.70
2018-06-29T06:16:08.924Z,88.20
2018-06-29T06:18:41.424Z,87.70
2018-06-29T06:21:13.960Z,87.90
2018-06-29T06:23:46.412Z,87.70
2018-06-29T06:26:19.043Z,87.40
2018-06-29T06:28:51.546Z,87.30
2018-06-29T06:31:24.100Z,87.10
2018-06-29T06:33:56.594Z,87.00
2018-06-29T06:36:29.016Z,86.80
2018-06-29T06:39:01.516Z,86.70
2018-06-29T06:41:34.192Z,86.60
2018-06-29T06:44:06.653Z,86.40
2018-06-29T06:46:39.127Z,85.20
2018-06-29T06:49:12.123Z,85.10
2018-06-29T06:51:44.623Z,84.60
2018-06-29T06:54:17.143Z,84.10
2018-06-29T06:56:49.625Z,84.30
2018-06-29T06:59:22.253Z,83.70
2018-06-29T07:01:54.880Z,83.60
2018-06-29T07:04:27.458Z,82.40
2018-06-29T07:07:00.024Z,83.40
2018-06-29T07:09:32.751Z,82.20
2018-06-29T07:12:05.379Z,81.10
2018-06-29T07:14:38.020Z,81.00
2018-06-29T07:17:10.684Z,81.20
2018-06-29T07:19:43.652Z,81.00
2018-06-29T07:22:16.416Z,80.80
2018-06-29T07:24:48.895Z,80.00
2018-06-29T07:27:21.367Z,79.90
2018-06-29T07:29:53.921Z,80.10
2018-06-29T07:32:26.547Z,79.40
2018-06-29T07:37:31.545Z,78.20
2018-06-29T07:40:04.136Z,77.90
2018-06-29T07:42:36.629Z,78.00
2018-06-29T07:45:09.197Z,76.90
2018-06-29T07:47:41.723Z,77.70
2018-06-29T07:50:14.453Z,76.60
2018-06-29T07:52:47.748Z,76.70
2018-06-29T07:55:20.355Z,76.50
2018-06-29T07:57:53.116Z,76.20
2018-06-29T08:00:25.673Z,76.00
2018-06-29T08:02:58.226Z,75.70
2018-06-29T08:05:30.750Z,75.40
2018-06-29T08:08:03.319Z,75.00
2018-06-29T08:10:35.891Z,75.10
2018-06-29T08:13:08.420Z,74.40
2018-06-29T08:15:40.913Z,74.70
2018-06-29T08:18:13.424Z,74.50
2018-06-29T08:23:18.553Z,74.90
2018-06-29T08:25:50.955Z,74.20
2018-06-29T08:28:23.607Z,74.20
2018-06-29T08:30:56.115Z,73.60
2018-06-29T08:33:28.655Z,73.90
2018-06-29T08:36:01.219Z,72.90
2018-06-29T08:38:33.774Z,73.60
2018-06-29T08:41:06.681Z,73.50
2018-06-29T08:43:39.397Z,72.20
2018-06-29T08:46:11.908Z,72.90
2018-06-29T08:48:44.413Z,72.30
2018-06-29T08:51:16.953Z,72.30
2018-06-29T08:53:49.446Z,70.30
2018-06-29T08:56:21.979Z,69.70
2018-06-29T08:58:56.330Z,69.00
2018-06-29T09:01:28.891Z,69.00
2018-06-29T09:04:02.685Z,69.00
2018-06-29T09:06:35.090Z,69.30
2018-06-29T09:09:08.410Z,69.40
2018-06-29T09:11:41.174Z,70.00
2018-06-29T09:14:13.688Z,69.00
2018-06-29T09:16:46.316Z,69.00
2018-06-29T09:19:19.204Z,68.80
2018-06-29T09:21:52.183Z,67.50
2018-06-29T09:24:24.731Z,66.70
2018-06-29T09:26:57.206Z,66.50
2018-06-29T09:29:29.666Z,66.70
2018-06-29T09:32:02.263Z,66.30
2018-06-29T09:34:35.332Z,92.40
2018-06-29T09:37:08.680Z,65.60
2018-06-29T09:39:41.986Z,65.00
2018-06-29T09:42:14.759Z,65.00
2018-06-29T09:44:47.201Z,65.70
2018-06-29T09:47:19.823Z,65.80
2018-06-29T09:49:52.357Z,64.60
2018-06-29T09:52:24.823Z,65.40
2018-06-29T09:54:57.316Z,65.00
2018-06-29T09:57:31.653Z,65.40
2018-06-29T10:00:06.660Z,63.10
2018-06-29T10:02:39.274Z,59.60
2018-06-29T10:10:17.172Z,56.50
2018-06-29T10:12:50.364Z,57.50
2018-06-29T10:15:23.105Z,57.60
2018-06-29T10:17:55.611Z,57.90
2018-06-29T10:20:28.880Z,58.00
2018-06-29T10:23:01.361Z,57.60
2018-06-29T10:25:34.025Z,57.80
2018-06-29T10:28:06.614Z,57.90
2018-06-29T10:30:39.062Z,58.20
2018-06-29T10:33:12.503Z,57.90
2018-06-29T10:35:45.029Z,57.60
2018-06-29T10:38:18.070Z,56.90
2018-06-29T10:40:50.712Z,56.90
2018-06-29T10:43:23.191Z,57.40
2018-06-29T10:45:56.894Z,57.10
2018-06-29T10:48:29.532Z,56.10
2018-06-29T10:51:01.999Z,55.70
2018-06-29T10:53:35.370Z,55.90
2018-06-29T10:56:07.771Z,55.90
2018-06-29T10:58:44.584Z,55.90
2018-06-29T11:01:17.227Z,54.80
2018-06-29T11:03:50.410Z,55.60
2018-06-29T11:06:23.040Z,55.30
2018-06-29T11:08:57.337Z,55.00
2018-06-29T11:11:31.562Z,55.50
2018-06-29T11:14:06.406Z,55.10
2018-06-29T11:16:39.243Z,54.70
2018-06-29T11:19:12.113Z,53.90
2018-06-29T11:21:44.583Z,54.30
2018-06-29T11:24:17.143Z,54.80
2018-06-29T11:26:50.570Z,54.60
2018-06-29T11:29:23.090Z,54.70
2018-06-29T11:31:55.571Z,54.20
2018-06-29T11:34:28.019Z,54.90
2018-06-29T11:37:00.514Z,55.10
2018-06-29T11:39:33.047Z,55.00
2018-06-29T11:42:05.518Z,55.50
2018-06-29T11:44:38.099Z,56.10
2018-06-29T11:47:12.441Z,56.40
2018-06-29T11:49:44.942Z,56.80
2018-06-29T11:52:17.404Z,56.80
2018-06-29T11:54:49.947Z,56.60
2018-06-29T11:57:22.432Z,56.80
2018-06-29T11:59:55.862Z,56.60
2018-06-29T12:02:28.388Z,55.90
2018-06-29T12:05:01.941Z,55.90
2018-06-29T12:07:36.024Z,54.70
2018-06-29T12:10:10.640Z,55.10
2018-06-29T12:12:44.687Z,54.60
2018-06-29T12:15:25.271Z,54.40
2018-06-29T12:17:59.264Z,52.70
2018-06-29T12:20:35.558Z,52.80
2018-06-29T12:23:12.566Z,51.90
2018-06-29T12:25:45.209Z,51.40
2018-06-29T12:28:20.792Z,51.30
2018-06-29T12:30:55.194Z,50.00
2018-06-29T12:33:29.603Z,50.20
2018-06-29T12:36:07.592Z,50.40
2018-06-29T12:38:40.189Z,50.10
2018-06-29T12:41:19.592Z,49.10
2018-06-29T12:43:56.767Z,49.20
2018-06-29T12:46:29.544Z,49.20
2018-06-29T12:49:03.805Z,49.10
2018-06-29T12:51:37.492Z,48.80
2018-06-29T12:54:10.032Z,48.60
2018-06-29T12:56:42.601Z,48.70
2018-06-29T12:59:15.110Z,48.70
2018-06-29T13:01:48.712Z,47.90
2018-06-29T13:04:21.153Z,48.40
2018-06-29T13:06:54.115Z,47.50
2018-06-29T13:09:26.676Z,47.20
2018-06-29T13:11:59.737Z,46.90
2018-06-29T13:14:32.293Z,47.60
2018-06-29T13:19:37.968Z,46.50
2018-06-29T13:22:10.502Z,46.00
2018-06-29T13:24:42.943Z,45.80
2018-06-29T13:27:15.653Z,45.50
2018-06-29T13:29:48.333Z,45.60
2018-06-29T13:32:20.827Z,45.00
2018-06-29T13:34:53.293Z,44.90
2018-06-29T13:37:25.795Z,44.70
2018-06-29T13:39:58.335Z,44.00
2018-06-29T13:42:30.845Z,44.00
2018-06-29T13:45:03.621Z,43.80
2018-06-29T13:47:36.350Z,43.80
2018-06-29T13:50:10.482Z,43.30
2018-06-29T13:52:42.987Z,43.80
2018-06-29T13:55:15.574Z,44.70
2018-06-29T13:57:48.067Z,45.30
2018-06-29T14:00:22.081Z,45.40
2018-06-29T14:02:54.627Z,45.80
2018-06-29T14:05:27.249Z,46.00
2018-06-29T14:07:59.933Z,46.40
2018-06-29T14:10:32.453Z,46.70
2018-06-29T14:13:05.162Z,46.50
2018-06-29T14:15:37.635Z,46.80
2018-06-29T14:18:10.080Z,46.90
2018-06-29T14:20:42.596Z,47.80
2018-06-29T14:23:15.102Z,47.80
2018-06-29T14:28:20.159Z,48.90
2018-06-29T14:30:52.818Z,48.70
2018-06-29T14:33:25.307Z,48.00
2018-06-29T14:35:57.785Z,49.00
2018-06-29T14:38:30.547Z,49.00
2018-06-29T14:41:03.243Z,48.60
2018-06-29T14:43:35.710Z,48.70
2018-06-29T14:46:08.517Z,48.60
2018-06-29T14:48:41.001Z,48.00
2018-06-29T14:51:14.541Z,48.60
2018-06-29T14:53:47.013Z,48.20
2018-06-29T14:56:19.760Z,47.60
2018-06-29T14:58:52.772Z,48.40
2018-06-29T15:01:25.531Z,50.40
2018-06-29T15:03:57.995Z,50.70
2018-06-29T15:06:30.438Z,51.30
2018-06-29T15:09:03.564Z,51.90
2018-06-29T15:11:36.291Z,52.40
2018-06-29T15:14:08.812Z,53.10
2018-06-29T15:16:41.313Z,52.90
2018-06-29T15:19:13.785Z,52.70
2018-06-29T15:21:46.415Z,51.30
2018-06-29T15:24:18.916Z,50.80
2018-06-29T15:26:51.478Z,50.90
2018-06-29T15:29:24.045Z,51.20
2018-06-29T15:31:56.705Z,53.80
2018-06-29T15:34:29.241Z,64.50
2018-06-29T15:37:01.745Z,70.20
2018-06-29T15:39:34.259Z,74.00
2018-06-29T15:42:06.865Z,76.30
2018-06-29T15:44:39.326Z,77.70
2018-06-29T15:47:11.794Z,78.50
2018-06-29T15:49:44.541Z,79.70
2018-06-29T15:52:17.195Z,79.90
2018-06-29T15:57:22.366Z,80.80
2018-06-29T15:59:54.914Z,81.30
2018-06-29T16:02:27.347Z,81.80
2018-06-29T16:04:59.817Z,81.60
2018-06-29T16:07:32.262Z,81.80
2018-06-29T16:10:04.753Z,82.60
2018-06-29T16:12:38.866Z,82.40
2018-06-29T16:15:11.398Z,82.60
2018-06-29T16:17:43.876Z,90.30
2018-06-29T16:20:16.626Z,82.90
2018-06-29T16:22:49.047Z,83.00
2018-06-29T16:27:54.089Z,83.20
2018-06-29T16:30:26.487Z,83.50
2018-06-29T16:32:59.072Z,83.10
2018-06-29T16:35:31.519Z,80.80
2018-06-29T16:38:04.355Z,80.60
2018-06-29T16:40:37.085Z,78.90
2018-06-29T16:43:09.507Z,78.80
2018-06-29T16:45:42.121Z,78.50
2018-06-29T16:48:14.638Z,78.90
2018-06-29T16:50:49.998Z,92.80
2018-06-29T16:53:23.158Z,79.20
2018-06-29T16:55:56.237Z,79.50
2018-06-29T16:58:28.666Z,79.40
2018-06-29T17:01:01.379Z,80.00
2018-06-29T17:03:34.194Z,80.20
2018-06-29T17:06:06.868Z,80.90
2018-06-29T17:08:39.365Z,83.40
2018-06-29T17:11:12.018Z,82.30
2018-06-29T17:13:44.591Z,82.30
2018-06-29T17:16:17.158Z,83.40
2018-06-29T17:18:49.861Z,83.40
2018-06-29T17:21:22.199Z,82.80
2018-06-29T17:23:55.028Z,82.30
2018-06-29T17:26:27.663Z,82.50
2018-06-29T17:29:00.239Z,83.10
2018-06-29T17:31:32.593Z,83.70
2018-06-29T17:34:05.837Z,84.90
2018-06-29T17:36:38.255Z,85.30
2018-06-29T17:39:11.471Z,85.50
2018-06-29T17:41:43.996Z,85.40
2018-06-29T17:44:16.449Z,85.40
2018-06-29T17:46:48.974Z,85.40
2018-06-29T17:49:21.512Z,85.50
2018-06-29T17:51:54.167Z,85.80
2018-06-29T17:54:26.834Z,85.70
2018-06-29T17:56:59.291Z,85.70
2018-06-29T17:59:32.615Z,86.00
2018-06-29T18:02:05.129Z,85.70
2018-06-29T18:04:37.858Z,85.80
2018-06-29T18:07:10.291Z,86.10
2018-06-29T18:09:42.881Z,86.00
2018-06-29T18:12:15.406Z,86.10
2018-06-29T18:14:48.013Z,86.20
2018-06-29T18:17:20.496Z,86.30
2018-06-29T18:19:52.900Z,86.20
2018-06-29T18:22:25.457Z,85.80
2018-06-29T18:24:57.965Z,85.90
2018-06-29T18:27:30.461Z,85.80
2018-06-29T18:30:03.791Z,86.00
2018-06-29T18:32:36.319Z,85.80
2018-06-29T18:35:08.892Z,85.80
2018-06-29T18:37:41.441Z,85.90
2018-06-29T18:40:13.856Z,85.80
2018-06-29T18:42:46.314Z,86.60
2018-06-29T18:45:18.673Z,86.30
2018-06-29T18:50:23.674Z,99.90
2018-06-29T18:52:56.474Z,99.60
2018-06-29T18:55:29.271Z,99.90
2018-06-29T18:58:01.785Z,98.40
2018-06-29T19:00:34.256Z,84.90
2018-06-29T19:03:07.055Z,85.50
2018-06-29T19:05:39.564Z,85.50
2018-06-29T19:08:11.938Z,85.30
2018-06-29T19:10:45.824Z,85.10
2018-06-29T19:13:18.426Z,84.50
2018-06-29T19:15:51.041Z,84.30
2018-06-29T19:20:56.082Z,84.10
2018-06-29T19:23:28.755Z,85.10
2018-06-29T19:28:34.064Z,84.40
2018-06-29T19:31:06.481Z,84.90
2018-06-29T19:33:39.035Z,84.00
2018-06-29T19:36:14.670Z,83.60
2018-06-29T19:38:47.238Z,82.90
2018-06-29T19:41:19.717Z,82.20
2018-06-29T19:43:52.601Z,81.70
2018-06-29T19:46:25.097Z,81.90
2018-06-29T19:48:57.633Z,80.90
2018-06-29T19:51:30.328Z,87.50
2018-06-29T19:54:02.769Z,79.10
2018-06-29T19:56:35.299Z,80.00
2018-06-29T19:59:07.770Z,80.00
2018-06-29T20:01:40.379Z,79.20
2018-06-29T20:04:12.955Z,79.90
2018-06-29T20:06:45.373Z,79.90
2018-06-29T20:09:17.886Z,80.30
2018-06-29T20:11:50.420Z,80.30
2018-06-29T20:14:23.090Z,80.60
2018-06-29T20:16:55.611Z,81.10
2018-06-29T20:22:00.640Z,81.70
2018-06-29T20:24:33.221Z,82.80
2018-06-29T20:27:05.787Z,83.20
2018-06-29T20:29:38.216Z,83.30
2018-06-29T20:32:10.718Z,83.50
2018-06-29T20:34:43.256Z,83.80
2018-06-29T20:37:15.850Z,84.20
2018-06-29T20:39:48.381Z,84.80
2018-06-29T20:42:20.850Z,84.30
2018-06-29T20:44:53.413Z,85.50
2018-06-29T20:47:25.965Z,86.00
2018-06-29T20:49:58.517Z,86.40
2018-06-29T20:52:31.054Z,86.70
2018-06-29T20:55:03.494Z,86.50
2018-06-29T20:57:36.007Z,86.70
2018-06-29T21:00:08.601Z,86.60
2018-06-29T21:02:41.109Z,99.90
2018-06-29T21:07:46.110Z,87.00
2018-06-29T21:10:18.606Z,87.90
2018-06-29T21:12:51.544Z,88.30
2018-06-29T21:15:24.158Z,88.70
2018-06-29T21:17:58.336Z,89.10
2018-06-29T21:20:30.805Z,89.30
2018-06-29T21:23:03.267Z,89.30
2018-06-29T21:25:35.723Z,89.50
2018-06-29T21:28:08.489Z,89.50
2018-06-29T21:30:40.910Z,90.00
2018-06-29T21:33:15.491Z,89.80
2018-06-29T21:35:48.757Z,90.20
2018-06-29T21:38:21.469Z,90.10
2018-06-29T21:40:54.061Z,90.20
2018-06-29T21:43:27.304Z,90.20
2018-06-29T21:45:59.800Z,90.20
2018-06-29T21:48:32.211Z,90.20
2018-06-29T21:51:04.652Z,90.30
2018-06-29T21:53:39.245Z,89.80
2018-06-29T21:56:11.653Z,90.20
2018-06-29T21:58:46.571Z,89.70
2018-06-29T22:01:19.039Z,90.10
2018-06-29T22:03:51.621Z,90.00
2018-06-29T22:06:24.117Z,89.50
2018-06-29T22:08:57.210Z,89.30
2018-06-29T22:11:29.944Z,89.00
2018-06-29T22:14:02.496Z,88.70
2018-06-29T22:16:35.895Z,88.60
2018-06-29T22:19:12.321Z,87.90
2018-06-29T22:21:45.145Z,88.70
2018-06-29T22:24:18.606Z,88.60
2018-06-29T22:29:23.884Z,88.50
2018-06-29T22:31:56.378Z,88.70
2018-06-29T22:34:29.391Z,87.70
2018-06-29T22:37:03.960Z,88.00
2018-06-29T22:39:36.468Z,88.60
2018-06-29T22:42:08.945Z,88.60
2018-06-29T22:44:41.384Z,88.40
2018-06-29T22:47:14.023Z,88.30
2018-06-29T22:49:46.516Z,88.90
2018-06-29T22:52:18.944Z,88.00
2018-06-29T22:59:56.995Z,86.90
2018-06-29T23:02:29.470Z,87.90
2018-06-29T23:05:01.943Z,88.20
2018-06-29T23:07:34.408Z,88.00
2018-06-29T23:10:07.105Z,87.60
2018-06-29T23:12:39.521Z,87.60
2018-06-29T23:15:11.963Z,87.50
2018-06-29T23:17:44.458Z,87.20
2018-06-29T23:20:17.016Z,88.40
2018-06-29T23:22:49.785Z,87.70
2018-06-29T23:25:22.853Z,87.60
2018-06-29T23:27:55.268Z,87.20
2018-06-29T23:30:27.703Z,87.70
2018-06-29T23:33:01.549Z,87.80
2018-06-29T23:38:06.799Z,88.00
2018-06-29T23:40:39.319Z,88.10
2018-06-29T23:43:11.764Z,88.00
2018-06-29T23:48:16.868Z,87.70
2018-06-29T23:50:49.328Z,88.40
2018-06-29T23:53:21.766Z,88.40
2018-06-29T23:55:54.217Z,88.50
2018-06-29T23:58:26.706Z,88.60
